Terminal Aerodrome Forecast
Issued by NWS

Home | Current Version | Previous Version | Text Only | Print | Product List | Glossary On
Versions: 1 2 3 4 5 6 7 8 9 10 11 12 13 14 15 16 17 18 19
858
FTUS41 KBTV 232339 AAB
TAFMSS
TAF AMD
KMSS 232339Z 2400/2424 22013G20KT 6SM -SHRA BR OVC030
      TEMPO 2400/2404 3SM -RASN BR OVC015
     FM240400 25015G25KT 4SM -SHRASN BR OVC018
      TEMPO 2404/2406 2SM -SN BR OVC012
     FM240600 27016G23KT 5SM -SHSN BR OVC012
     FM240800 27017G23KT 6SM BR VCSH OVC025
     FM241000 28015G22KT P6SM BKN045
     FM242100 27010KT P6SM SCT150=

USA.gov is the U.S. government's official web portal to all federal, state and local government web resources and services.